sensor_id;sensor_type;location;lat;lon;timestamp;P1;durP1;ratioP1;P2;durP2;ratioP2
20144;SDS011;10233;50.814;6.590;2022-09-01T00:00:45;4.38;;;2.60;;
20144;SDS011;10233;50.814;6.590;2022-09-01T00:01:51;3.90;;;3.00;;
20144;SDS011;10233;50.814;6.590;2022-09-01T00:02:52;3.92;;;3.10;;
20144;SDS011;10233;50.814;6.590;2022-09-01T00:03:53;3.42;;;2.70;;
20144;SDS011;10233;50.814;6.590;2022-09-01T00:04:55;3.72;;;2.70;;
20144;SDS011;10233;50.814;6.590;2022-09-01T00:05:57;3.60;;;2.80;;
20144;SDS011;10233;50.814;6.590;2022-09-01T00:06:57;5.97;;;3.40;;
20144;SDS011;10233;50.814;6.590;2022-09-01T00:07:58;3.78;;;2.90;;
20144;SDS011;10233;50.814;6.590;2022-09-01T00:09:01;4.03;;;3.05;;
20144;SDS011;10233;50.814;6.590;2022-09-01T00:10:08;4.40;;;2.72;;
20144;SDS011;10233;50.814;6.590;2022-09-01T00:11:09;3.78;;;3.00;;
20144;SDS011;10233;50.814;6.590;2022-09-01T00:12:10;3.83;;;2.80;;
20144;SDS011;10233;50.814;6.590;2022-09-01T00:13:10;4.27;;;2.97;;
20144;SDS011;10233;50.814;6.590;2022-09-01T00:14:11;5.13;;;3.03;;
20144;SDS011;10233;50.814;6.590;2022-09-01T00:15:12;3.70;;;2.90;;
20144;SDS011;10233;50.814;6.590;2022-09-01T00:16:14;3.67;;;2.70;;
20144;SDS011;10233;50.814;6.590;2022-09-01T00:17:17;2.92;;;2.47;;
20144;SDS011;10233;50.814;6.590;2022-09-01T00:18:17;4.37;;;3.20;;
20144;SDS011;10233;50.814;6.590;2022-09-01T00:19:18;5.37;;;2.97;;
20144;SDS011;10233;50.814;6.590;2022-09-01T00:20:19;3.42;;;2.67;;
20144;SDS011;10233;50.814;6.590;2022-09-01T00:21:21;3.55;;;2.97;;
20144;SDS011;10233;50.814;6.590;2022-09-01T00:22:24;4.75;;;3.00;;
20144;SDS011;10233;50.814;6.590;2022-09-01T00:23:25;4.87;;;3.37;;
20144;SDS011;10233;50.814;6.590;2022-09-01T00:24:27;5.95;;;3.65;;
20144;SDS011;10233;50.814;6.590;2022-09-01T00:25:28;4.25;;;3.00;;
20144;SDS011;10233;50.814;6.590;2022-09-01T00:26:28;5.87;;;3.40;;
20144;SDS011;10233;50.814;6.590;2022-09-01T00:27:29;5.05;;;3.53;;
20144;SDS011;10233;50.814;6.590;2022-09-01T00:28:33;3.57;;;2.90;;
20144;SDS011;10233;50.814;6.590;2022-09-01T00:29:35;4.82;;;3.28;;
20144;SDS011;10233;50.814;6.590;2022-09-01T00:30:35;4.40;;;3.28;;
20144;SDS011;10233;50.814;6.590;2022-09-01T00:31:36;6.10;;;3.30;;
20144;SDS011;10233;50.814;6.590;2022-09-01T00:32:38;4.05;;;2.80;;
20144;SDS011;10233;50.814;6.590;2022-09-01T00:33:38;3.87;;;3.20;;
20144;SDS011;10233;50.814;6.590;2022-09-01T00:34:38;3.67;;;2.97;;
20144;SDS011;10233;50.814;6.590;2022-09-01T00:35:39;3.90;;;3.10;;
20144;SDS011;10233;50.814;6.590;2022-09-01T00:36:40;5.53;;;3.13;;
20144;SDS011;10233;50.814;6.590;2022-09-01T00:37:41;4.45;;;3.28;;
20144;SDS011;10233;50.814;6.590;2022-09-01T00:38:42;3.60;;;2.93;;
20144;SDS011;10233;50.814;6.590;2022-09-01T00:39:43;4.50;;;3.00;;
20144;SDS011;10233;50.814;6.590;2022-09-01T00:40:43;5.55;;;3.22;;
20144;SDS011;10233;50.814;6.590;2022-09-01T00:41:44;4.30;;;3.10;;
20144;SDS011;10233;50.814;6.590;2022-09-01T00:42:46;3.78;;;2.90;;
20144;SDS011;10233;50.814;6.590;2022-09-01T00:43:48;4.80;;;3.30;;
20144;SDS011;10233;50.814;6.590;2022-09-01T00:44:54;4.75;;;3.28;;
20144;SDS011;10233;50.814;6.590;2022-09-01T00:45:55;4.20;;;3.30;;
20144;SDS011;10233;50.814;6.590;2022-09-01T00:46:56;3.80;;;3.00;;
20144;SDS011;10233;50.814;6.590;2022-09-01T00:47:57;5.10;;;3.40;;
20144;SDS011;10233;50.814;6.590;2022-09-01T00:49:03;3.58;;;3.00;;
20144;SDS011;10233;50.814;6.590;2022-09-01T00:50:32;4.38;;;3.35;;
20144;SDS011;10233;50.814;6.590;2022-09-01T00:51:33;4.57;;;3.40;;
20144;SDS011;10233;50.814;6.590;2022-09-01T00:52:42;4.45;;;3.40;;
20144;SDS011;10233;50.814;6.590;2022-09-01T00:53:49;5.25;;;3.50;;
20144;SDS011;10233;50.814;6.590;2022-09-01T00:54:52;3.72;;;3.08;;
20144;SDS011;10233;50.814;6.590;2022-09-01T00:55:57;5.03;;;3.13;;
20144;SDS011;10233;50.814;6.590;2022-09-01T00:56:57;4.20;;;3.10;;
20144;SDS011;10233;50.814;6.590;2022-09-01T00:57:59;4.65;;;3.55;;
20144;SDS011;10233;50.814;6.590;2022-09-01T00:59:02;5.45;;;3.47;;
20144;SDS011;10233;50.814;6.590;2022-09-01T01:00:08;5.00;;;3.00;;
20144;SDS011;10233;50.814;6.590;2022-09-01T01:01:15;4.93;;;3.13;;
20144;SDS011;10233;50.814;6.590;2022-09-01T01:02:15;5.43;;;3.23;;
20144;SDS011;10233;50.814;6.590;2022-09-01T01:03:16;4.63;;;3.15;;
20144;SDS011;10233;50.814;6.590;2022-09-01T01:04:16;3.80;;;3.13;;
20144;SDS011;10233;50.814;6.590;2022-09-01T01:05:17;3.53;;;2.92;;
20144;SDS011;10233;50.814;6.590;2022-09-01T01:06:17;4.13;;;3.40;;
20144;SDS011;10233;50.814;6.590;2022-09-01T01:07:23;4.70;;;3.08;;
20144;SDS011;10233;50.814;6.590;2022-09-01T01:08:25;4.28;;;3.63;;
20144;SDS011;10233;50.814;6.590;2022-09-01T01:09:33;4.57;;;3.33;;
20144;SDS011;10233;50.814;6.590;2022-09-01T01:10:38;4.25;;;3.50;;
20144;SDS011;10233;50.814;6.590;2022-09-01T01:11:40;4.15;;;3.35;;
20144;SDS011;10233;50.814;6.590;2022-09-01T01:12:44;5.63;;;3.17;;
20144;SDS011;10233;50.814;6.590;2022-09-01T01:14:02;3.97;;;3.03;;
20144;SDS011;10233;50.814;6.590;2022-09-01T01:15:11;4.20;;;3.10;;
20144;SDS011;10233;50.814;6.590;2022-09-01T01:16:14;5.50;;;3.22;;
20144;SDS011;10233;50.814;6.590;2022-09-01T01:17:16;3.72;;;3.33;;
20144;SDS011;10233;50.814;6.590;2022-09-01T01:18:17;4.05;;;3.35;;
20144;SDS011;10233;50.814;6.590;2022-09-01T01:20:43;5.68;;;3.47;;
20144;SDS011;10233;50.814;6.590;2022-09-01T01:22:05;4.00;;;3.10;;
20144;SDS011;10233;50.814;6.590;2022-09-01T01:23:40;4.93;;;3.25;;
20144;SDS011;10233;50.814;6.590;2022-09-01T01:24:50;5.45;;;3.30;;
20144;SDS011;10233;50.814;6.590;2022-09-01T01:25:56;5.13;;;3.08;;
20144;SDS011;10233;50.814;6.590;2022-09-01T01:27:00;4.70;;;3.90;;
20144;SDS011;10233;50.814;6.590;2022-09-01T01:29:27;4.38;;;3.50;;
20144;SDS011;10233;50.814;6.590;2022-09-01T01:30:33;6.57;;;3.25;;
20144;SDS011;10233;50.814;6.590;2022-09-01T01:31:34;3.83;;;3.15;;
20144;SDS011;10233;50.814;6.590;2022-09-01T01:32:35;5.47;;;3.15;;
20144;SDS011;10233;50.814;6.590;2022-09-01T01:33:40;5.47;;;3.20;;
20144;SDS011;10233;50.814;6.590;2022-09-01T01:34:46;4.07;;;3.60;;
20144;SDS011;10233;50.814;6.590;2022-09-01T01:35:47;4.40;;;3.20;;
20144;SDS011;10233;50.814;6.590;2022-09-01T01:36:50;4.38;;;3.63;;
20144;SDS011;10233;50.814;6.590;2022-09-01T01:37:52;4.10;;;3.15;;
20144;SDS011;10233;50.814;6.590;2022-09-01T01:38:53;6.65;;;3.60;;
20144;SDS011;10233;50.814;6.590;2022-09-01T01:40:03;5.95;;;3.67;;
20144;SDS011;10233;50.814;6.590;2022-09-01T01:41:04;5.37;;;3.13;;
20144;SDS011;10233;50.814;6.590;2022-09-01T01:42:05;6.20;;;3.70;;
20144;SDS011;10233;50.814;6.590;2022-09-01T01:43:08;4.22;;;3.45;;
20144;SDS011;10233;50.814;6.590;2022-09-01T01:44:15;8.43;;;4.10;;
20144;SDS011;10233;50.814;6.590;2022-09-01T01:45:19;5.57;;;4.00;;
20144;SDS011;10233;50.814;6.590;2022-09-01T01:46:22;4.35;;;3.45;;
20144;SDS011;10233;50.814;6.590;2022-09-01T01:47:25;6.18;;;3.92;;
20144;SDS011;10233;50.814;6.590;2022-09-01T01:48:26;5.60;;;3.88;;
20144;SDS011;10233;50.814;6.590;2022-09-01T01:49:27;5.55;;;4.00;;
20144;SDS011;10233;50.814;6.590;2022-09-01T01:50:30;4.15;;;3.50;;
20144;SDS011;10233;50.814;6.590;2022-09-01T01:51:34;5.50;;;3.60;;
20144;SDS011;10233;50.814;6.590;2022-09-01T01:52:36;4.85;;;3.78;;
20144;SDS011;10233;50.814;6.590;2022-09-01T01:53:37;5.28;;;3.58;;
20144;SDS011;10233;50.814;6.590;2022-09-01T01:54:38;5.72;;;3.88;;
20144;SDS011;10233;50.814;6.590;2022-09-01T01:55:39;5.10;;;3.80;;
20144;SDS011;10233;50.814;6.590;2022-09-01T01:56:41;4.53;;;3.60;;
20144;SDS011;10233;50.814;6.590;2022-09-01T01:57:41;7.97;;;3.63;;
20144;SDS011;10233;50.814;6.590;2022-09-01T01:58:48;6.13;;;3.90;;
20144;SDS011;10233;50.814;6.590;2022-09-01T01:59:49;5.00;;;3.72;;
20144;SDS011;10233;50.814;6.590;2022-09-01T02:00:51;4.22;;;3.35;;
20144;SDS011;10233;50.814;6.590;2022-09-01T02:01:53;6.18;;;3.70;;
20144;SDS011;10233;50.814;6.590;2022-09-01T02:02:57;4.80;;;3.72;;
20144;SDS011;10233;50.814;6.590;2022-09-01T02:03:58;6.07;;;3.80;;
20144;SDS011;10233;50.814;6.590;2022-09-01T02:04:59;4.68;;;3.35;;
20144;SDS011;10233;50.814;6.590;2022-09-01T02:06:00;4.65;;;3.47;;
20144;SDS011;10233;50.814;6.590;2022-09-01T02:07:10;5.00;;;3.22;;
20144;SDS011;10233;50.814;6.590;2022-09-01T02:08:12;4.22;;;3.45;;
20144;SDS011;10233;50.814;6.590;2022-09-01T02:09:16;4.68;;;3.30;;
20144;SDS011;10233;50.814;6.590;2022-09-01T02:10:18;4.23;;;3.40;;
20144;SDS011;10233;50.814;6.590;2022-09-01T02:11:19;5.03;;;4.03;;
20144;SDS011;10233;50.814;6.590;2022-09-01T02:12:20;6.78;;;4.45;;
20144;SDS011;10233;50.814;6.590;2022-09-01T02:13:24;8.13;;;4.18;;
20144;SDS011;10233;50.814;6.590;2022-09-01T02:14:27;5.00;;;3.78;;
20144;SDS011;10233;50.814;6.590;2022-09-01T02:15:28;5.45;;;3.58;;
20144;SDS011;10233;50.814;6.590;2022-09-01T02:16:34;5.40;;;3.90;;
20144;SDS011;10233;50.814;6.590;2022-09-01T02:17:36;5.18;;;3.67;;
20144;SDS011;10233;50.814;6.590;2022-09-01T02:18:40;7.97;;;3.90;;
20144;SDS011;10233;50.814;6.590;2022-09-01T02:19:47;6.25;;;4.10;;
20144;SDS011;10233;50.814;6.590;2022-09-01T02:20:49;5.30;;;3.72;;
20144;SDS011;10233;50.814;6.590;2022-09-01T02:21:51;6.32;;;3.95;;
20144;SDS011;10233;50.814;6.590;2022-09-01T02:22:55;4.22;;;3.47;;
20144;SDS011;10233;50.814;6.590;2022-09-01T02:23:57;4.60;;;3.60;;
20144;SDS011;10233;50.814;6.590;2022-09-01T02:25:05;5.30;;;4.03;;
20144;SDS011;10233;50.814;6.590;2022-09-01T02:26:06;4.53;;;3.58;;
20144;SDS011;10233;50.814;6.590;2022-09-01T02:27:10;6.05;;;3.90;;
20144;SDS011;10233;50.814;6.590;2022-09-01T02:28:11;7.30;;;4.00;;
20144;SDS011;10233;50.814;6.590;2022-09-01T02:29:19;4.35;;;3.60;;
20144;SDS011;10233;50.814;6.590;2022-09-01T02:30:22;7.50;;;3.85;;
20144;SDS011;10233;50.814;6.590;2022-09-01T02:31:24;6.15;;;4.07;;
20144;SDS011;10233;50.814;6.590;2022-09-01T02:32:25;5.47;;;4.10;;
20144;SDS011;10233;50.814;6.590;2022-09-01T02:33:25;6.70;;;4.18;;
20144;SDS011;10233;50.814;6.590;2022-09-01T02:34:27;6.28;;;4.18;;
20144;SDS011;10233;50.814;6.590;2022-09-01T02:35:28;5.65;;;4.10;;
20144;SDS011;10233;50.814;6.590;2022-09-01T02:36:33;6.93;;;4.80;;
20144;SDS011;10233;50.814;6.590;2022-09-01T02:37:35;4.95;;;3.72;;
20144;SDS011;10233;50.814;6.590;2022-09-01T02:38:38;4.45;;;3.30;;
20144;SDS011;10233;50.814;6.590;2022-09-01T02:39:43;4.15;;;3.45;;
20144;SDS011;10233;50.814;6.590;2022-09-01T02:40:45;5.20;;;3.30;;
20144;SDS011;10233;50.814;6.590;2022-09-01T02:41:47;4.40;;;3.45;;
20144;SDS011;10233;50.814;6.590;2022-09-01T02:42:49;5.95;;;3.72;;
20144;SDS011;10233;50.814;6.590;2022-09-01T02:43:52;5.43;;;3.60;;
20144;SDS011;10233;50.814;6.590;2022-09-01T02:44:53;8.23;;;3.95;;
20144;SDS011;10233;50.814;6.590;2022-09-01T02:45:56;4.90;;;3.90;;
20144;SDS011;10233;50.814;6.590;2022-09-01T02:46:58;6.03;;;4.07;;
20144;SDS011;10233;50.814;6.590;2022-09-01T02:48:01;4.85;;;3.70;;
20144;SDS011;10233;50.814;6.590;2022-09-01T02:49:02;5.40;;;3.60;;
20144;SDS011;10233;50.814;6.590;2022-09-01T02:50:04;5.72;;;4.07;;
20144;SDS011;10233;50.814;6.590;2022-09-01T02:51:07;5.63;;;4.10;;
20144;SDS011;10233;50.814;6.590;2022-09-01T02:52:11;6.33;;;4.67;;
20144;SDS011;10233;50.814;6.590;2022-09-01T02:53:15;5.03;;;4.03;;
20144;SDS011;10233;50.814;6.590;2022-09-01T02:54:18;5.57;;;3.80;;
20144;SDS011;10233;50.814;6.590;2022-09-01T02:55:21;5.97;;;4.35;;
20144;SDS011;10233;50.814;6.590;2022-09-01T02:56:23;6.63;;;4.30;;
20144;SDS011;10233;50.814;6.590;2022-09-01T02:57:24;5.65;;;4.32;;
20144;SDS011;10233;50.814;6.590;2022-09-01T02:58:25;7.07;;;4.82;;
20144;SDS011;10233;50.814;6.590;2022-09-01T02:59:27;7.13;;;4.23;;
20144;SDS011;10233;50.814;6.590;2022-09-01T03:00:33;8.32;;;5.05;;
20144;SDS011;10233;50.814;6.590;2022-09-01T03:01:37;6.77;;;4.53;;
20144;SDS011;10233;50.814;6.590;2022-09-01T03:02:39;6.50;;;4.47;;
20144;SDS011;10233;50.814;6.590;2022-09-01T03:03:39;8.02;;;5.07;;
20144;SDS011;10233;50.814;6.590;2022-09-01T03:04:40;8.43;;;5.10;;
20144;SDS011;10233;50.814;6.590;2022-09-01T03:05:42;10.32;;;5.60;;
20144;SDS011;10233;50.814;6.590;2022-09-01T03:06:43;7.15;;;5.20;;
20144;SDS011;10233;50.814;6.590;2022-09-01T03:07:46;7.32;;;5.15;;
20144;SDS011;10233;50.814;6.590;2022-09-01T03:08:47;7.68;;;5.30;;
20144;SDS011;10233;50.814;6.590;2022-09-01T03:09:48;7.73;;;5.07;;
20144;SDS011;10233;50.814;6.590;2022-09-01T03:10:52;10.70;;;5.97;;
20144;SDS011;10233;50.814;6.590;2022-09-01T03:11:54;8.60;;;5.60;;
20144;SDS011;10233;50.814;6.590;2022-09-01T03:12:58;9.82;;;5.70;;
20144;SDS011;10233;50.814;6.590;2022-09-01T03:14:00;13.32;;;6.07;;
20144;SDS011;10233;50.814;6.590;2022-09-01T03:15:02;8.88;;;5.40;;
20144;SDS011;10233;50.814;6.590;2022-09-01T03:16:04;11.20;;;5.72;;
20144;SDS011;10233;50.814;6.590;2022-09-01T03:17:06;9.40;;;6.28;;
20144;SDS011;10233;50.814;6.590;2022-09-01T03:18:09;13.00;;;6.78;;
20144;SDS011;10233;50.814;6.590;2022-09-01T03:19:11;13.95;;;6.35;;
20144;SDS011;10233;50.814;6.590;2022-09-01T03:20:15;11.65;;;6.13;;
20144;SDS011;10233;50.814;6.590;2022-09-01T03:21:16;11.45;;;6.47;;
20144;SDS011;10233;50.814;6.590;2022-09-01T03:22:17;11.07;;;6.72;;
20144;SDS011;10233;50.814;6.590;2022-09-01T03:23:19;10.20;;;6.35;;
20144;SDS011;10233;50.814;6.590;2022-09-01T03:24:21;14.98;;;6.53;;
20144;SDS011;10233;50.814;6.590;2022-09-01T03:25:22;9.03;;;6.40;;
20144;SDS011;10233;50.814;6.590;2022-09-01T03:26:25;10.57;;;6.78;;
20144;SDS011;10233;50.814;6.590;2022-09-01T03:27:26;11.73;;;6.60;;
20144;SDS011;10233;50.814;6.590;2022-09-01T03:28:27;8.90;;;6.00;;
20144;SDS011;10233;50.814;6.590;2022-09-01T03:29:29;14.73;;;6.88;;
20144;SDS011;10233;50.814;6.590;2022-09-01T03:30:31;8.40;;;6.05;;
20144;SDS011;10233;50.814;6.590;2022-09-01T03:31:33;9.70;;;6.13;;
20144;SDS011;10233;50.814;6.590;2022-09-01T03:32:35;9.52;;;6.03;;
20144;SDS011;10233;50.814;6.590;2022-09-01T03:33:36;8.85;;;6.05;;
20144;SDS011;10233;50.814;6.590;2022-09-01T03:34:38;8.43;;;5.82;;
20144;SDS011;10233;50.814;6.590;2022-09-01T03:35:39;8.87;;;5.97;;
20144;SDS011;10233;50.814;6.590;2022-09-01T03:36:39;9.27;;;5.75;;
20144;SDS011;10233;50.814;6.590;2022-09-01T03:37:50;9.48;;;5.70;;
20144;SDS011;10233;50.814;6.590;2022-09-01T03:38:52;8.40;;;5.47;;
20144;SDS011;10233;50.814;6.590;2022-09-01T03:39:53;8.80;;;5.70;;
20144;SDS011;10233;50.814;6.590;2022-09-01T03:40:56;10.43;;;6.13;;
20144;SDS011;10233;50.814;6.590;2022-09-01T03:42:01;8.88;;;5.70;;
20144;SDS011;10233;50.814;6.590;2022-09-01T03:43:02;8.32;;;5.55;;
20144;SDS011;10233;50.814;6.590;2022-09-01T03:44:05;8.20;;;5.80;;
20144;SDS011;10233;50.814;6.590;2022-09-01T03:45:07;9.43;;;5.85;;
20144;SDS011;10233;50.814;6.590;2022-09-01T03:46:09;7.70;;;5.35;;
20144;SDS011;10233;50.814;6.590;2022-09-01T03:47:10;7.40;;;5.28;;
20144;SDS011;10233;50.814;6.590;2022-09-01T03:48:14;9.75;;;5.70;;
20144;SDS011;10233;50.814;6.590;2022-09-01T03:49:15;8.85;;;5.72;;
20144;SDS011;10233;50.814;6.590;2022-09-01T03:50:17;9.27;;;5.90;;
20144;SDS011;10233;50.814;6.590;2022-09-01T03:51:21;8.55;;;5.57;;
20144;SDS011;10233;50.814;6.590;2022-09-01T03:52:22;9.38;;;6.25;;
20144;SDS011;10233;50.814;6.590;2022-09-01T03:53:24;7.53;;;5.13;;
20144;SDS011;10233;50.814;6.590;2022-09-01T03:54:30;8.38;;;5.55;;
20144;SDS011;10233;50.814;6.590;2022-09-01T03:55:33;7.97;;;4.80;;
20144;SDS011;10233;50.814;6.590;2022-09-01T03:56:37;12.07;;;6.50;;
20144;SDS011;10233;50.814;6.590;2022-09-01T03:57:41;10.27;;;6.05;;
20144;SDS011;10233;50.814;6.590;2022-09-01T03:58:42;8.93;;;5.93;;
20144;SDS011;10233;50.814;6.590;2022-09-01T03:59:47;10.00;;;5.43;;
20144;SDS011;10233;50.814;6.590;2022-09-01T04:00:52;7.63;;;4.97;;
20144;SDS011;10233;50.814;6.590;2022-09-01T04:01:55;7.60;;;5.05;;
20144;SDS011;10233;50.814;6.590;2022-09-01T04:02:57;7.45;;;5.30;;
20144;SDS011;10233;50.814;6.590;2022-09-01T04:04:00;9.02;;;5.38;;
20144;SDS011;10233;50.814;6.590;2022-09-01T04:05:04;8.60;;;5.15;;
20144;SDS011;10233;50.814;6.590;2022-09-01T04:06:07;7.88;;;5.60;;
20144;SDS011;10233;50.814;6.590;2022-09-01T04:07:09;7.32;;;4.93;;
20144;SDS011;10233;50.814;6.590;2022-09-01T04:08:11;7.80;;;5.38;;
20144;SDS011;10233;50.814;6.590;2022-09-01T04:09:12;10.35;;;5.45;;
20144;SDS011;10233;50.814;6.590;2022-09-01T04:10:16;8.57;;;5.40;;
20144;SDS011;10233;50.814;6.590;2022-09-01T04:11:18;8.90;;;5.50;;
20144;SDS011;10233;50.814;6.590;2022-09-01T04:12:23;9.00;;;5.78;;
20144;SDS011;10233;50.814;6.590;2022-09-01T04:13:27;10.07;;;6.30;;
20144;SDS011;10233;50.814;6.590;2022-09-01T04:14:30;9.10;;;6.07;;
20144;SDS011;10233;50.814;6.590;2022-09-01T04:15:30;9.07;;;5.97;;
20144;SDS011;10233;50.814;6.590;2022-09-01T04:16:34;9.05;;;6.32;;
20144;SDS011;10233;50.814;6.590;2022-09-01T04:17:53;12.25;;;6.50;;
20144;SDS011;10233;50.814;6.590;2022-09-01T04:19:10;11.13;;;5.85;;
20144;SDS011;10233;50.814;6.590;2022-09-01T04:20:19;10.20;;;6.13;;
20144;SDS011;10233;50.814;6.590;2022-09-01T04:21:22;8.10;;;5.68;;
20144;SDS011;10233;50.814;6.590;2022-09-01T04:22:23;8.20;;;5.55;;
20144;SDS011;10233;50.814;6.590;2022-09-01T04:23:29;13.38;;;6.15;;
20144;SDS011;10233;50.814;6.590;2022-09-01T04:24:40;10.10;;;5.55;;
20144;SDS011;10233;50.814;6.590;2022-09-01T04:25:45;8.18;;;5.63;;
20144;SDS011;10233;50.814;6.590;2022-09-01T04:26:49;9.13;;;6.30;;
20144;SDS011;10233;50.814;6.590;2022-09-01T04:27:52;9.25;;;6.18;;
20144;SDS011;10233;50.814;6.590;2022-09-01T04:28:57;8.77;;;5.95;;
20144;SDS011;10233;50.814;6.590;2022-09-01T04:29:57;9.82;;;6.13;;
20144;SDS011;10233;50.814;6.590;2022-09-01T04:31:03;8.88;;;5.97;;
20144;SDS011;10233;50.814;6.590;2022-09-01T04:32:09;9.88;;;6.18;;
20144;SDS011;10233;50.814;6.590;2022-09-01T04:33:14;10.57;;;6.32;;
20144;SDS011;10233;50.814;6.590;2022-09-01T04:34:16;10.02;;;6.35;;
20144;SDS011;10233;50.814;6.590;2022-09-01T04:35:16;10.40;;;6.28;;
20144;SDS011;10233;50.814;6.590;2022-09-01T04:36:20;10.67;;;6.70;;
20144;SDS011;10233;50.814;6.590;2022-09-01T04:37:24;10.50;;;6.30;;
20144;SDS011;10233;50.814;6.590;2022-09-01T04:38:29;8.77;;;5.90;;
20144;SDS011;10233;50.814;6.590;2022-09-01T04:39:30;9.38;;;5.95;;
20144;SDS011;10233;50.814;6.590;2022-09-01T04:40:31;10.80;;;6.13;;
20144;SDS011;10233;50.814;6.590;2022-09-01T04:41:32;10.18;;;6.38;;
20144;SDS011;10233;50.814;6.590;2022-09-01T04:42:36;9.13;;;5.63;;
20144;SDS011;10233;50.814;6.590;2022-09-01T04:43:37;9.95;;;6.28;;
20144;SDS011;10233;50.814;6.590;2022-09-01T04:44:38;9.73;;;6.53;;
20144;SDS011;10233;50.814;6.590;2022-09-01T04:45:39;10.75;;;6.05;;
20144;SDS011;10233;50.814;6.590;2022-09-01T04:46:41;10.63;;;5.82;;
20144;SDS011;10233;50.814;6.590;2022-09-01T04:47:45;8.70;;;5.60;;
20144;SDS011;10233;50.814;6.590;2022-09-01T04:48:50;8.13;;;5.05;;
20144;SDS011;10233;50.814;6.590;2022-09-01T04:49:53;7.82;;;5.28;;
20144;SDS011;10233;50.814;6.590;2022-09-01T04:50:59;6.67;;;5.47;;
20144;SDS011;10233;50.814;6.590;2022-09-01T04:52:04;7.53;;;5.35;;
20144;SDS011;10233;50.814;6.590;2022-09-01T04:53:05;7.40;;;5.37;;
20144;SDS011;10233;50.814;6.590;2022-09-01T04:54:11;6.80;;;5.20;;
20144;SDS011;10233;50.814;6.590;2022-09-01T04:55:13;8.00;;;5.28;;
20144;SDS011;10233;50.814;6.590;2022-09-01T04:56:18;8.63;;;5.22;;
20144;SDS011;10233;50.814;6.590;2022-09-01T04:57:31;8.68;;;5.35;;
20144;SDS011;10233;50.814;6.590;2022-09-01T04:58:32;7.63;;;5.55;;
20144;SDS011;10233;50.814;6.590;2022-09-01T04:59:33;7.82;;;5.43;;
20144;SDS011;10233;50.814;6.590;2022-09-01T05:00:34;8.40;;;5.40;;
20144;SDS011;10233;50.814;6.590;2022-09-01T05:01:35;10.13;;;5.53;;
20144;SDS011;10233;50.814;6.590;2022-09-01T05:02:42;7.43;;;5.28;;
20144;SDS011;10233;50.814;6.590;2022-09-01T05:03:46;7.85;;;5.57;;
20144;SDS011;10233;50.814;6.590;2022-09-01T05:05:12;8.43;;;5.47;;
20144;SDS011;10233;50.814;6.590;2022-09-01T05:06:15;8.60;;;5.18;;
20144;SDS011;10233;50.814;6.590;2022-09-01T05:07:22;8.60;;;5.30;;
20144;SDS011;10233;50.814;6.590;2022-09-01T05:08:23;9.38;;;5.78;;
20144;SDS011;10233;50.814;6.590;2022-09-01T05:09:24;7.83;;;5.33;;
20144;SDS011;10233;50.814;6.590;2022-09-01T05:10:47;7.88;;;5.30;;
20144;SDS011;10233;50.814;6.590;2022-09-01T05:11:52;10.05;;;5.45;;
20144;SDS011;10233;50.814;6.590;2022-09-01T05:12:56;8.02;;;5.30;;
20144;SDS011;10233;50.814;6.590;2022-09-01T05:13:57;12.57;;;5.87;;
20144;SDS011;10233;50.814;6.590;2022-09-01T05:14:57;10.55;;;6.53;;
20144;SDS011;10233;50.814;6.590;2022-09-01T05:16:00;7.93;;;5.23;;
20144;SDS011;10233;50.814;6.590;2022-09-01T05:17:03;8.43;;;4.88;;
20144;SDS011;10233;50.814;6.590;2022-09-01T05:18:09;7.03;;;5.00;;
20144;SDS011;10233;50.814;6.590;2022-09-01T05:19:10;8.65;;;5.32;;
20144;SDS011;10233;50.814;6.590;2022-09-01T05:20:14;7.70;;;5.15;;
20144;SDS011;10233;50.814;6.590;2022-09-01T05:21:16;6.67;;;4.47;;
20144;SDS011;10233;50.814;6.590;2022-09-01T05:22:19;9.13;;;5.00;;
20144;SDS011;10233;50.814;6.590;2022-09-01T05:23:40;9.02;;;4.90;;
20144;SDS011;10233;50.814;6.590;2022-09-01T05:24:42;11.02;;;5.22;;
20144;SDS011;10233;50.814;6.590;2022-09-01T05:25:45;9.77;;;5.20;;
20144;SDS011;10233;50.814;6.590;2022-09-01T05:26:53;9.57;;;4.90;;
20144;SDS011;10233;50.814;6.590;2022-09-01T05:27:54;7.78;;;4.82;;
20144;SDS011;10233;50.814;6.590;2022-09-01T05:28:59;7.72;;;5.10;;
20144;SDS011;10233;50.814;6.590;2022-09-01T05:30:02;6.40;;;4.75;;
20144;SDS011;10233;50.814;6.590;2022-09-01T05:31:07;8.40;;;4.88;;
20144;SDS011;10233;50.814;6.590;2022-09-01T05:32:09;7.17;;;4.77;;
20144;SDS011;10233;50.814;6.590;2022-09-01T05:33:12;10.57;;;5.20;;
20144;SDS011;10233;50.814;6.590;2022-09-01T05:34:16;8.77;;;5.10;;
20144;SDS011;10233;50.814;6.590;2022-09-01T05:35:25;6.38;;;4.60;;
20144;SDS011;10233;50.814;6.590;2022-09-01T05:36:27;10.73;;;4.77;;
20144;SDS011;10233;50.814;6.590;2022-09-01T05:37:30;6.63;;;4.75;;
20144;SDS011;10233;50.814;6.590;2022-09-01T05:38:33;6.80;;;4.70;;
20144;SDS011;10233;50.814;6.590;2022-09-01T05:39:35;9.18;;;4.75;;
20144;SDS011;10233;50.814;6.590;2022-09-01T05:40:38;8.60;;;4.80;;
20144;SDS011;10233;50.814;6.590;2022-09-01T05:41:40;10.90;;;4.72;;
20144;SDS011;10233;50.814;6.590;2022-09-01T05:42:42;6.13;;;4.40;;
20144;SDS011;10233;50.814;6.590;2022-09-01T05:43:44;6.35;;;4.78;;
20144;SDS011;10233;50.814;6.590;2022-09-01T05:44:48;7.15;;;4.85;;
20144;SDS011;10233;50.814;6.590;2022-09-01T05:45:49;6.70;;;4.30;;
20144;SDS011;10233;50.814;6.590;2022-09-01T05:46:51;6.17;;;4.50;;
20144;SDS011;10233;50.814;6.590;2022-09-01T05:47:53;7.78;;;4.40;;
20144;SDS011;10233;50.814;6.590;2022-09-01T05:48:54;7.47;;;4.88;;
20144;SDS011;10233;50.814;6.590;2022-09-01T05:49:55;7.25;;;4.85;;
20144;SDS011;10233;50.814;6.590;2022-09-01T05:50:57;6.60;;;4.30;;
20144;SDS011;10233;50.814;6.590;2022-09-01T05:51:59;9.40;;;4.72;;
20144;SDS011;10233;50.814;6.590;2022-09-01T05:53:02;6.47;;;4.65;;
20144;SDS011;10233;50.814;6.590;2022-09-01T05:54:08;7.85;;;4.40;;
20144;SDS011;10233;50.814;6.590;2022-09-01T05:55:11;7.03;;;4.68;;
20144;SDS011;10233;50.814;6.590;2022-09-01T05:56:15;8.30;;;4.63;;
20144;SDS011;10233;50.814;6.590;2022-09-01T05:57:18;8.30;;;4.40;;
20144;SDS011;10233;50.814;6.590;2022-09-01T05:58:19;8.05;;;4.65;;
20144;SDS011;10233;50.814;6.590;2022-09-01T05:59:20;6.07;;;4.70;;
20144;SDS011;10233;50.814;6.590;2022-09-01T06:00:22;6.30;;;4.70;;
20144;SDS011;10233;50.814;6.590;2022-09-01T06:01:25;7.30;;;4.97;;
20144;SDS011;10233;50.814;6.590;2022-09-01T06:02:26;9.10;;;4.95;;
20144;SDS011;10233;50.814;6.590;2022-09-01T06:03:28;6.80;;;4.50;;
20144;SDS011;10233;50.814;6.590;2022-09-01T06:04:30;5.18;;;4.20;;
20144;SDS011;10233;50.814;6.590;2022-09-01T06:05:36;8.88;;;5.10;;
20144;SDS011;10233;50.814;6.590;2022-09-01T06:06:45;7.75;;;4.90;;
20144;SDS011;10233;50.814;6.590;2022-09-01T06:07:51;6.05;;;4.40;;
20144;SDS011;10233;50.814;6.590;2022-09-01T06:08:54;10.43;;;5.18;;
20144;SDS011;10233;50.814;6.590;2022-09-01T06:09:58;7.60;;;4.82;;
20144;SDS011;10233;50.814;6.590;2022-09-01T06:11:01;7.82;;;4.90;;
20144;SDS011;10233;50.814;6.590;2022-09-01T06:12:03;8.90;;;5.07;;
20144;SDS011;10233;50.814;6.590;2022-09-01T06:13:06;8.25;;;5.10;;
20144;SDS011;10233;50.814;6.590;2022-09-01T06:14:07;6.80;;;4.95;;
20144;SDS011;10233;50.814;6.590;2022-09-01T06:15:10;10.23;;;5.20;;
20144;SDS011;10233;50.814;6.590;2022-09-01T06:16:16;9.00;;;4.93;;
20144;SDS011;10233;50.814;6.590;2022-09-01T06:17:19;7.25;;;4.82;;
20144;SDS011;10233;50.814;6.590;2022-09-01T06:18:23;6.40;;;4.67;;
20144;SDS011;10233;50.814;6.590;2022-09-01T06:19:30;8.30;;;4.80;;
20144;SDS011;10233;50.814;6.590;2022-09-01T06:20:32;7.82;;;4.65;;
20144;SDS011;10233;50.814;6.590;2022-09-01T06:21:33;5.75;;;4.50;;
20144;SDS011;10233;50.814;6.590;2022-09-01T06:22:35;7.30;;;4.73;;
20144;SDS011;10233;50.814;6.590;2022-09-01T06:23:35;6.50;;;4.43;;